samedi 17 mai 2014

ALERTE SPOTTING 17/05/14


752 G-ZAPX Titan Airways
   TO905/TO3142  08h00/08h45
 TO3143/TO906  14h25/15h10

73H I-NEOU Neos
  dpt TO902  10h25

763 CS-TFS Euro Atlantic Airways
   AT764/AT765  16h15/17h30

319 G-EZIO easyJet (couleur Unicef)
   U24072/U24071  20h30/21h00

Manque les prévisions de certains AB / AH / AZ / BA / BE / IB / KM / TP / TU
*** Heures en Local Time **
Prévisions matinales soumises à modifications de dernières minute.
 Voir le log du mois pour la version 'définitive' de la journée: 
 http://www.airkalo.com/ORLYAVIATION/Logdumois.html

le TAF de la journée:

METAR: LFPO 170300Z 01007KT CAVOK 10/05 Q1024 NOSIG=
TAF LONG: LFPO 162300Z 1700/1806 03008KT CAVOK=